• Join FlightAware (Why Join?)
  • Login
  • US Flag 
04:04AM EDT


 

Airport Tracker/Info


-or-


 

Live Flight TrackerFlight Track Log ✈ ASQ4633 ✈ 30-Apr-2013 ✈ KBTV - KEWR

Flight Track Log - Related Links

Times and Time Zones

All times are in EDT time to prevent confusion due to time zone crossing. See the ASQ4633 flight status page for this flight to view local times or setup timezone preferences in your user account.

Time Position Orientation Groundspeed Altitude Reporting Facility
EDT Latitude Longitude Course Direction KTS MPH feet Rate Location/Type
03:46PM 44.3489 -73.1194 193° South 234 269 6,600  Level Boston Center
03:47PM 44.2800 -73.1506 198° South 249 287 9,500 2,220 Climbing Boston Center
03:48PM 44.1375 -73.2656 190° South  Level FlightAware Approximate
03:48PM 44.2028 -73.1844 197° South 271 312 11,100  Level Boston Center
03:49PM 44.0539 -73.2885 196° South  Level FlightAware Approximate
03:49PM 44.1044 -73.2264 197° South 324 373 12,900  Level Boston Center
03:50PM 43.9719 -73.3213 196° South  Level FlightAware Approximate
03:50PM 44.0125 -73.2656 197° South 346 398 14,700  Level Boston Center
03:51PM 43.9164 -73.3075 197° South 356 410 16,300 1,560 Climbing Boston Center
03:52PM 43.8222 -73.3494 198° South 361 415 17,900 1,440 Climbing Boston Center
03:53PM 43.7219 -73.3911 197° South 366 421 19,200 1,200 Climbing Boston Center
03:54PM 43.6300 -73.4297 197° South 372 428 20,400 1,140 Climbing Boston Center
03:55PM 43.5461 -73.4656 197° South 386 444 21,500 780 Climbing Boston Center
03:56PM 43.4144 -73.5178 196° South 400 460 22,000 240 Climbing Boston Center
03:57PM 43.2992 -73.5697 198° South 421 484 22,000  Level Boston Center
03:58PM 43.1800 -73.6189 197° South 433 498 22,000 -780 Level Boston Center
03:59PM 43.0522 -73.6761 198° South 447 514 20,500 -1,740 Descending Boston Center
04:00PM 42.9414 -73.7219 197° South 441 507 18,600 -1,800 Descending Boston Center
04:01PM 42.8386 -73.7681 198° South 412 474 17,000 -1,320 Descending Boston Center
04:02PM 42.7339 -73.8139 198° South 405 466 16,000 -540 Descending Boston Center
04:03PM 42.6311 -73.8594 198° South 405 466 16,000  Level Boston Center
04:04PM 42.5328 -73.8997 197° South 405 466 16,000  Level Boston Center
04:05PM 42.4194 -73.9503 198° South 405 466 16,000  Level Boston Center
04:06PM 42.3231 -73.9931 198° South 410 472 16,000  Level Boston Center
04:07PM 42.2078 -74.0433 198° South 405 466 16,000  Level Boston Center
04:08PM 42.1133 -74.0828 197° South 405 466 16,000  Level Boston Center
04:09PM 42.0086 -74.1306 199° South 405 466 16,000 -540 Level Boston Center
04:10PM 41.8953 -74.1806 198° South 405 466 15,000 -1,260 Descending Boston Center
04:11PM 41.8028 -74.2197 198° South 400 460 13,500 -1,680 Descending Boston Center
04:12PM 41.7042 -74.2642 199° South 364 419 11,700 -1,680 Descending Boston Center
04:13PM 41.6308 -74.2953 198° South 321 369 10,200 -1,620 Descending Boston Center
04:14PM 41.5489 -74.3319 199° South 290 334 8,500 -1,140 Descending Boston Center
04:16PM 41.4167 -74.3833 196° South 268 308 7,100 -540 Descending New York TRACON
04:17PM 41.3500 -74.4167 201° Southwest 264 304 7,100  Level New York TRACON
04:18PM 41.2833 -74.4500 201° Southwest 266 306 7,100  Level New York TRACON
04:19PM 41.2167 -74.4833 201° Southwest 269 310 7,100  Level New York TRACON
04:20PM 41.1333 -74.5000 189° South 267 307 7,100 -300 Level New York TRACON
04:21PM 41.0667 -74.5167 191° South 265 305 6,600 -540 Descending New York TRACON
04:22PM 41.0000 -74.5167 180° South 260 299 6,100 -720 Descending New York TRACON
04:23PM 40.9667 -74.4500 123° Southeast 247 284 5,200 -540 Descending New York TRACON
04:24PM 40.9667 -74.3500 90° East 243 280 5,100 -540 Descending New York TRACON
04:25PM 40.9333 -74.2667 118° Southeast 239 275 4,200 -600 Descending New York TRACON
04:26PM 40.9000 -74.2000 123° Southeast 228 262 4,000 -360 Descending New York TRACON
04:27PM 40.8833 -74.1333 108° East 213 245 3,600 -480 Descending New York TRACON